TimeCDT,TemperatureF,Dew PointF,Humidity,Sea Level PressureIn,VisibilityMPH,Wind Direction,Wind SpeedMPH,Gust SpeedMPH,PrecipitationIn,Events,Conditions,WindDirDegrees,DateUTC
12:53 AM,55.9,48.0,75,30.04,10.0,East,5.8,-,N/A,,Overcast,100,2013-07-21 05:53:00
1:53 AM,55.0,48.9,80,30.03,10.0,East,9.2,-,N/A,,Overcast,100,2013-07-21 06:53:00
2:53 AM,55.0,48.0,77,30.02,10.0,ESE,8.1,-,N/A,,Overcast,110,2013-07-21 07:53:00
3:34 AM,53.6,46.4,77,30.03,10.0,East,8.1,-,N/A,,Overcast,100,2013-07-21 08:34:00
3:53 AM,54.0,45.0,72,30.02,10.0,East,9.2,-,N/A,,Overcast,100,2013-07-21 08:53:00
4:12 AM,53.6,44.6,72,30.03,10.0,ESE,6.9,-,N/A,,Overcast,120,2013-07-21 09:12:00
4:53 AM,54.0,44.1,69,30.03,10.0,East,5.8,-,N/A,,Overcast,100,2013-07-21 09:53:00
5:53 AM,54.0,42.1,64,30.04,10.0,East,6.9,-,N/A,,Overcast,100,2013-07-21 10:53:00
6:53 AM,55.0,41.0,59,30.04,10.0,ESE,6.9,-,N/A,,Overcast,120,2013-07-21 11:53:00
7:37 AM,55.4,42.8,63,30.05,10.0,ESE,6.9,-,N/A,,Overcast,110,2013-07-21 12:37:00
7:53 AM,55.0,43.0,64,30.05,10.0,ESE,5.8,-,N/A,,Overcast,110,2013-07-21 12:53:00
8:09 AM,55.4,44.6,67,30.05,10.0,ESE,5.8,-,N/A,,Overcast,110,2013-07-21 13:09:00
8:53 AM,57.0,46.9,69,30.06,10.0,ESE,6.9,-,N/A,,Overcast,110,2013-07-21 13:53:00
9:16 AM,57.2,46.4,67,30.05,10.0,SE,6.9,-,N/A,,Overcast,130,2013-07-21 14:16:00
9:53 AM,57.9,46.9,67,30.06,10.0,ESE,6.9,-,N/A,,Overcast,120,2013-07-21 14:53:00
10:53 AM,61.0,46.0,58,30.06,10.0,SSE,5.8,-,N/A,,Overcast,160,2013-07-21 15:53:00
11:53 AM,64.0,48.9,58,30.05,10.0,ESE,6.9,-,N/A,,Overcast,120,2013-07-21 16:53:00
12:53 PM,63.0,51.1,65,30.03,10.0,Variable,5.8,-,N/A,,Overcast,0,2013-07-21 17:53:00
1:53 PM,64.9,52.0,63,30.01,10.0,SE,8.1,-,N/A,,Mostly Cloudy,130,2013-07-21 18:53:00
2:53 PM,64.0,53.1,67,29.99,10.0,Variable,4.6,-,N/A,,Overcast,0,2013-07-21 19:53:00
3:53 PM,64.9,54.0,68,29.99,10.0,SSE,8.1,-,N/A,,Overcast,150,2013-07-21 20:53:00
4:20 PM,64.4,53.6,68,29.98,10.0,South,9.2,-,N/A,,Overcast,180,2013-07-21 21:20:00
4:53 PM,64.9,54.0,68,29.97,10.0,SSW,9.2,-,N/A,,Overcast,200,2013-07-21 21:53:00
5:13 PM,64.4,53.6,68,29.96,10.0,South,5.8,-,N/A,,Overcast,170,2013-07-21 22:13:00
5:53 PM,64.0,55.0,73,29.96,10.0,Calm,Calm,-,N/A,,Overcast,0,2013-07-21 22:53:00
6:06 PM,64.4,55.4,73,29.96,10.0,South,5.8,-,N/A,,Overcast,170,2013-07-21 23:06:00
6:22 PM,64.4,55.4,73,29.96,10.0,South,4.6,-,N/A,,Overcast,170,2013-07-21 23:22:00
6:39 PM,64.4,55.4,73,29.96,10.0,Calm,Calm,-,N/A,,Overcast,0,2013-07-21 23:39:00
6:53 PM,64.9,55.9,73,29.96,10.0,ESE,5.8,-,N/A,,Overcast,120,2013-07-21 23:53:00
7:42 PM,64.4,55.4,73,29.95,10.0,SE,6.9,-,N/A,,Scattered Clouds,130,2013-07-22 00:42:00
7:53 PM,64.0,55.9,75,29.95,10.0,ESE,6.9,-,N/A,,Clear,120,2013-07-22 00:53:00
8:28 PM,62.6,57.2,82,29.95,10.0,SE,4.6,-,N/A,,Mostly Cloudy,130,2013-07-22 01:28:00
8:53 PM,63.0,57.0,81,29.95,10.0,SE,3.5,-,N/A,,Overcast,130,2013-07-22 01:53:00
9:53 PM,62.1,57.0,84,29.94,10.0,SSE,4.6,-,N/A,,Mostly Cloudy,160,2013-07-22 02:53:00
10:06 PM,60.8,57.2,88,29.95,10.0,South,4.6,-,N/A,,Scattered Clouds,170,2013-07-22 03:06:00
10:53 PM,59.0,55.9,90,29.95,10.0,Calm,Calm,-,N/A,,Clear,0,2013-07-22 03:53:00
11:53 PM,57.0,55.0,93,29.94,10.0,Calm,Calm,-,N/A,,Clear,0,2013-07-22 04:53:00